sensor_id;sensor_type;location;lat;lon;timestamp;temperature;humidity
23087;DHT22;11712;51.134;4.156;2022-07-11T00:01:35;17.90;99.90
23087;DHT22;11712;51.134;4.156;2022-07-11T00:04:01;18.00;99.90
23087;DHT22;11712;51.134;4.156;2022-07-11T00:06:26;17.80;99.90
23087;DHT22;11712;51.134;4.156;2022-07-11T00:08:52;17.80;99.90
23087;DHT22;11712;51.134;4.156;2022-07-11T00:11:18;17.80;99.90
23087;DHT22;11712;51.134;4.156;2022-07-11T00:13:43;17.70;99.90
23087;DHT22;11712;51.134;4.156;2022-07-11T00:16:09;17.70;99.90
23087;DHT22;11712;51.134;4.156;2022-07-11T00:18:34;17.40;99.90
23087;DHT22;11712;51.134;4.156;2022-07-11T00:21:00;17.30;99.90
23087;DHT22;11712;51.134;4.156;2022-07-11T00:23:26;17.30;99.90
23087;DHT22;11712;51.134;4.156;2022-07-11T00:25:52;17.30;99.90
23087;DHT22;11712;51.134;4.156;2022-07-11T00:28:18;17.20;99.90
23087;DHT22;11712;51.134;4.156;2022-07-11T00:30:44;17.10;99.90
23087;DHT22;11712;51.134;4.156;2022-07-11T00:33:10;17.10;99.90
23087;DHT22;11712;51.134;4.156;2022-07-11T00:35:36;17.00;99.90
23087;DHT22;11712;51.134;4.156;2022-07-11T00:38:02;16.90;99.90
23087;DHT22;11712;51.134;4.156;2022-07-11T00:40:28;16.70;99.90
23087;DHT22;11712;51.134;4.156;2022-07-11T00:42:54;16.70;99.90
23087;DHT22;11712;51.134;4.156;2022-07-11T00:45:20;16.60;99.90
23087;DHT22;11712;51.134;4.156;2022-07-11T00:47:46;16.50;99.90
23087;DHT22;11712;51.134;4.156;2022-07-11T00:50:13;16.50;99.90
23087;DHT22;11712;51.134;4.156;2022-07-11T00:52:40;16.50;99.90
23087;DHT22;11712;51.134;4.156;2022-07-11T00:55:07;16.50;99.90
23087;DHT22;11712;51.134;4.156;2022-07-11T00:57:34;16.50;99.90
23087;DHT22;11712;51.134;4.156;2022-07-11T01:00:01;16.60;99.90
23087;DHT22;11712;51.134;4.156;2022-07-11T01:02:27;16.60;99.90
23087;DHT22;11712;51.134;4.156;2022-07-11T01:04:53;16.70;99.90
23087;DHT22;11712;51.134;4.156;2022-07-11T01:07:18;16.70;99.90
23087;DHT22;11712;51.134;4.156;2022-07-11T01:09:44;16.60;99.90
23087;DHT22;11712;51.134;4.156;2022-07-11T01:12:10;16.60;99.90
23087;DHT22;11712;51.134;4.156;2022-07-11T01:14:35;16.60;99.90
23087;DHT22;11712;51.134;4.156;2022-07-11T01:17:01;16.50;99.90
23087;DHT22;11712;51.134;4.156;2022-07-11T01:19:27;16.50;99.90
23087;DHT22;11712;51.134;4.156;2022-07-11T01:21:56;16.40;99.90
23087;DHT22;11712;51.134;4.156;2022-07-11T01:24:24;16.50;99.90
23087;DHT22;11712;51.134;4.156;2022-07-11T01:26:51;16.50;99.90
23087;DHT22;11712;51.134;4.156;2022-07-11T01:29:17;16.50;99.90
23087;DHT22;11712;51.134;4.156;2022-07-11T01:31:44;16.40;99.90
23087;DHT22;11712;51.134;4.156;2022-07-11T01:34:10;16.40;99.90
23087;DHT22;11712;51.134;4.156;2022-07-11T01:36:36;16.30;99.90
23087;DHT22;11712;51.134;4.156;2022-07-11T01:39:03;16.10;99.90
23087;DHT22;11712;51.134;4.156;2022-07-11T01:41:28;15.90;99.90
23087;DHT22;11712;51.134;4.156;2022-07-11T01:43:54;15.90;99.90
23087;DHT22;11712;51.134;4.156;2022-07-11T01:46:20;15.90;99.90
23087;DHT22;11712;51.134;4.156;2022-07-11T01:48:47;16.00;99.90
23087;DHT22;11712;51.134;4.156;2022-07-11T01:51:13;16.00;99.90
23087;DHT22;11712;51.134;4.156;2022-07-11T01:53:38;16.20;99.90
23087;DHT22;11712;51.134;4.156;2022-07-11T01:56:04;16.30;99.90
23087;DHT22;11712;51.134;4.156;2022-07-11T01:58:30;16.40;99.90
23087;DHT22;11712;51.134;4.156;2022-07-11T02:00:57;16.30;99.90
23087;DHT22;11712;51.134;4.156;2022-07-11T02:03:23;16.30;99.90
23087;DHT22;11712;51.134;4.156;2022-07-11T02:05:48;16.40;99.90
23087;DHT22;11712;51.134;4.156;2022-07-11T02:08:14;16.40;99.90
23087;DHT22;11712;51.134;4.156;2022-07-11T02:10:48;16.30;99.90
23087;DHT22;11712;51.134;4.156;2022-07-11T02:13:16;16.40;99.90
23087;DHT22;11712;51.134;4.156;2022-07-11T02:15:43;16.40;99.90
23087;DHT22;11712;51.134;4.156;2022-07-11T02:18:10;16.50;99.90
23087;DHT22;11712;51.134;4.156;2022-07-11T02:20:37;16.40;99.90
23087;DHT22;11712;51.134;4.156;2022-07-11T02:23:03;16.50;99.90
23087;DHT22;11712;51.134;4.156;2022-07-11T02:25:30;16.60;99.90
23087;DHT22;11712;51.134;4.156;2022-07-11T02:27:55;16.80;99.90
23087;DHT22;11712;51.134;4.156;2022-07-11T02:30:22;16.70;99.90
23087;DHT22;11712;51.134;4.156;2022-07-11T02:32:49;16.50;99.90
23087;DHT22;11712;51.134;4.156;2022-07-11T02:35:15;16.40;99.90
23087;DHT22;11712;51.134;4.156;2022-07-11T02:37:40;16.40;99.90
23087;DHT22;11712;51.134;4.156;2022-07-11T02:40:06;16.50;99.90
23087;DHT22;11712;51.134;4.156;2022-07-11T02:42:32;16.40;99.90
23087;DHT22;11712;51.134;4.156;2022-07-11T02:44:58;16.50;99.90
23087;DHT22;11712;51.134;4.156;2022-07-11T02:47:24;16.50;99.90
23087;DHT22;11712;51.134;4.156;2022-07-11T02:49:49;16.50;99.90
23087;DHT22;11712;51.134;4.156;2022-07-11T02:52:15;16.40;99.90
23087;DHT22;11712;51.134;4.156;2022-07-11T02:54:41;16.50;99.90
23087;DHT22;11712;51.134;4.156;2022-07-11T02:57:06;16.40;99.90
23087;DHT22;11712;51.134;4.156;2022-07-11T02:59:32;16.40;99.90
23087;DHT22;11712;51.134;4.156;2022-07-11T03:01:59;16.20;99.90
23087;DHT22;11712;51.134;4.156;2022-07-11T03:04:24;16.30;99.90
23087;DHT22;11712;51.134;4.156;2022-07-11T03:06:50;16.20;99.90
23087;DHT22;11712;51.134;4.156;2022-07-11T03:09:16;16.20;99.90
23087;DHT22;11712;51.134;4.156;2022-07-11T03:11:42;16.20;99.90
23087;DHT22;11712;51.134;4.156;2022-07-11T03:14:08;16.20;99.90
23087;DHT22;11712;51.134;4.156;2022-07-11T03:16:34;16.30;99.90
23087;DHT22;11712;51.134;4.156;2022-07-11T03:19:00;16.30;99.90
23087;DHT22;11712;51.134;4.156;2022-07-11T03:21:26;16.30;99.90
23087;DHT22;11712;51.134;4.156;2022-07-11T03:23:52;16.30;99.90
23087;DHT22;11712;51.134;4.156;2022-07-11T03:26:18;16.20;99.90
23087;DHT22;11712;51.134;4.156;2022-07-11T03:28:44;16.30;99.90
23087;DHT22;11712;51.134;4.156;2022-07-11T03:31:10;16.30;99.90
23087;DHT22;11712;51.134;4.156;2022-07-11T03:33:36;16.20;99.90
23087;DHT22;11712;51.134;4.156;2022-07-11T03:36:02;16.10;99.90
23087;DHT22;11712;51.134;4.156;2022-07-11T03:38:28;16.10;99.90
23087;DHT22;11712;51.134;4.156;2022-07-11T03:40:54;16.00;99.90
23087;DHT22;11712;51.134;4.156;2022-07-11T03:43:24;16.00;99.90
23087;DHT22;11712;51.134;4.156;2022-07-11T03:45:50;16.00;99.90
23087;DHT22;11712;51.134;4.156;2022-07-11T03:48:15;16.00;99.90
23087;DHT22;11712;51.134;4.156;2022-07-11T03:50:41;16.00;99.90
23087;DHT22;11712;51.134;4.156;2022-07-11T03:53:07;16.00;99.90
23087;DHT22;11712;51.134;4.156;2022-07-11T03:55:33;16.10;99.90
23087;DHT22;11712;51.134;4.156;2022-07-11T03:57:59;16.00;99.90
23087;DHT22;11712;51.134;4.156;2022-07-11T04:00:25;16.00;99.90
23087;DHT22;11712;51.134;4.156;2022-07-11T04:02:50;16.00;99.90
23087;DHT22;11712;51.134;4.156;2022-07-11T04:05:16;16.10;99.90
23087;DHT22;11712;51.134;4.156;2022-07-11T04:07:42;16.20;99.90
23087;DHT22;11712;51.134;4.156;2022-07-11T04:10:09;16.10;99.90
23087;DHT22;11712;51.134;4.156;2022-07-11T04:12:35;16.20;99.90
23087;DHT22;11712;51.134;4.156;2022-07-11T04:15:01;16.20;99.90
23087;DHT22;11712;51.134;4.156;2022-07-11T04:17:26;16.20;99.90
23087;DHT22;11712;51.134;4.156;2022-07-11T04:19:53;16.30;99.90
23087;DHT22;11712;51.134;4.156;2022-07-11T04:22:19;16.40;99.90
23087;DHT22;11712;51.134;4.156;2022-07-11T04:24:44;16.50;99.90
23087;DHT22;11712;51.134;4.156;2022-07-11T04:27:10;16.60;99.90
23087;DHT22;11712;51.134;4.156;2022-07-11T04:29:36;16.50;99.90
23087;DHT22;11712;51.134;4.156;2022-07-11T04:32:01;16.60;99.90
23087;DHT22;11712;51.134;4.156;2022-07-11T04:34:27;16.70;99.90
23087;DHT22;11712;51.134;4.156;2022-07-11T04:36:53;16.90;99.90
23087;DHT22;11712;51.134;4.156;2022-07-11T04:39:18;17.00;99.90
23087;DHT22;11712;51.134;4.156;2022-07-11T04:41:44;16.90;99.90
23087;DHT22;11712;51.134;4.156;2022-07-11T04:44:10;16.90;99.90
23087;DHT22;11712;51.134;4.156;2022-07-11T04:46:36;16.90;99.90
23087;DHT22;11712;51.134;4.156;2022-07-11T04:49:01;16.90;99.90
23087;DHT22;11712;51.134;4.156;2022-07-11T04:51:27;17.00;99.90
23087;DHT22;11712;51.134;4.156;2022-07-11T04:53:53;17.00;99.90
23087;DHT22;11712;51.134;4.156;2022-07-11T04:56:18;16.90;99.90
23087;DHT22;11712;51.134;4.156;2022-07-11T04:58:44;17.00;99.90
23087;DHT22;11712;51.134;4.156;2022-07-11T05:01:10;17.10;99.90
23087;DHT22;11712;51.134;4.156;2022-07-11T05:03:36;17.10;99.90
23087;DHT22;11712;51.134;4.156;2022-07-11T05:06:05;17.30;99.90
23087;DHT22;11712;51.134;4.156;2022-07-11T05:08:32;17.40;99.90
23087;DHT22;11712;51.134;4.156;2022-07-11T05:11:04;17.50;99.90
23087;DHT22;11712;51.134;4.156;2022-07-11T05:13:30;17.50;99.90
23087;DHT22;11712;51.134;4.156;2022-07-11T05:15:56;17.70;99.90
23087;DHT22;11712;51.134;4.156;2022-07-11T05:18:22;17.50;99.90
23087;DHT22;11712;51.134;4.156;2022-07-11T05:20:48;17.40;99.90
23087;DHT22;11712;51.134;4.156;2022-07-11T05:23:16;17.40;99.90
23087;DHT22;11712;51.134;4.156;2022-07-11T05:25:42;17.40;99.90
23087;DHT22;11712;51.134;4.156;2022-07-11T05:28:07;17.30;99.90
23087;DHT22;11712;51.134;4.156;2022-07-11T05:30:33;17.20;99.90
23087;DHT22;11712;51.134;4.156;2022-07-11T05:32:59;17.20;99.90
23087;DHT22;11712;51.134;4.156;2022-07-11T05:35:25;17.30;99.90
23087;DHT22;11712;51.134;4.156;2022-07-11T05:37:51;17.40;99.90
23087;DHT22;11712;51.134;4.156;2022-07-11T05:40:16;17.40;99.90
23087;DHT22;11712;51.134;4.156;2022-07-11T05:42:42;17.30;99.90
23087;DHT22;11712;51.134;4.156;2022-07-11T05:45:09;17.50;99.90
23087;DHT22;11712;51.134;4.156;2022-07-11T05:47:34;17.70;99.90
23087;DHT22;11712;51.134;4.156;2022-07-11T05:50:00;17.80;99.90
23087;DHT22;11712;51.134;4.156;2022-07-11T05:52:26;18.10;99.90
23087;DHT22;11712;51.134;4.156;2022-07-11T05:54:51;18.10;99.90
23087;DHT22;11712;51.134;4.156;2022-07-11T05:57:17;18.00;99.90
23087;DHT22;11712;51.134;4.156;2022-07-11T05:59:43;18.30;99.90
23087;DHT22;11712;51.134;4.156;2022-07-11T06:02:11;18.40;99.90
23087;DHT22;11712;51.134;4.156;2022-07-11T06:04:37;18.50;99.90
23087;DHT22;11712;51.134;4.156;2022-07-11T06:07:03;18.50;99.90
23087;DHT22;11712;51.134;4.156;2022-07-11T06:09:29;18.70;99.90
23087;DHT22;11712;51.134;4.156;2022-07-11T06:11:55;18.80;99.90
23087;DHT22;11712;51.134;4.156;2022-07-11T06:14:21;18.70;99.90
23087;DHT22;11712;51.134;4.156;2022-07-11T06:16:46;18.70;99.90
23087;DHT22;11712;51.134;4.156;2022-07-11T06:19:12;18.80;99.90
23087;DHT22;11712;51.134;4.156;2022-07-11T06:21:39;18.90;99.90
23087;DHT22;11712;51.134;4.156;2022-07-11T06:24:06;18.90;99.90
23087;DHT22;11712;51.134;4.156;2022-07-11T06:26:31;19.00;99.90
23087;DHT22;11712;51.134;4.156;2022-07-11T06:28:57;19.00;99.90
23087;DHT22;11712;51.134;4.156;2022-07-11T06:31:23;19.00;99.90
23087;DHT22;11712;51.134;4.156;2022-07-11T06:33:48;19.00;99.90
23087;DHT22;11712;51.134;4.156;2022-07-11T06:36:20;18.90;99.90
23087;DHT22;11712;51.134;4.156;2022-07-11T06:38:50;18.70;99.90
23087;DHT22;11712;51.134;4.156;2022-07-11T06:41:16;18.70;99.90
23087;DHT22;11712;51.134;4.156;2022-07-11T06:43:42;18.70;99.90
23087;DHT22;11712;51.134;4.156;2022-07-11T06:46:07;18.60;99.90
23087;DHT22;11712;51.134;4.156;2022-07-11T06:48:33;18.70;99.90
23087;DHT22;11712;51.134;4.156;2022-07-11T06:50:59;18.90;99.90
23087;DHT22;11712;51.134;4.156;2022-07-11T06:53:24;19.00;99.90
23087;DHT22;11712;51.134;4.156;2022-07-11T06:55:50;19.20;99.90
23087;DHT22;11712;51.134;4.156;2022-07-11T06:58:16;19.30;99.90
23087;DHT22;11712;51.134;4.156;2022-07-11T07:01:03;19.40;99.90
23087;DHT22;11712;51.134;4.156;2022-07-11T07:03:32;19.70;99.90
23087;DHT22;11712;51.134;4.156;2022-07-11T07:05:58;19.80;99.90
23087;DHT22;11712;51.134;4.156;2022-07-11T07:08:25;19.80;99.90
23087;DHT22;11712;51.134;4.156;2022-07-11T07:10:52;20.00;99.90
23087;DHT22;11712;51.134;4.156;2022-07-11T07:13:18;20.40;99.90
23087;DHT22;11712;51.134;4.156;2022-07-11T07:15:44;20.60;99.90
23087;DHT22;11712;51.134;4.156;2022-07-11T07:18:10;20.80;99.90
23087;DHT22;11712;51.134;4.156;2022-07-11T07:20:37;20.80;99.90
23087;DHT22;11712;51.134;4.156;2022-07-11T07:23:03;20.80;99.90
23087;DHT22;11712;51.134;4.156;2022-07-11T07:25:28;20.60;99.90
23087;DHT22;11712;51.134;4.156;2022-07-11T07:27:54;20.40;99.90
23087;DHT22;11712;51.134;4.156;2022-07-11T07:30:19;20.30;99.90
23087;DHT22;11712;51.134;4.156;2022-07-11T07:32:45;20.50;99.90
23087;DHT22;11712;51.134;4.156;2022-07-11T07:35:11;20.80;99.90
23087;DHT22;11712;51.134;4.156;2022-07-11T07:37:37;21.10;99.90
23087;DHT22;11712;51.134;4.156;2022-07-11T07:40:02;21.20;99.90
23087;DHT22;11712;51.134;4.156;2022-07-11T07:42:28;21.40;99.90
23087;DHT22;11712;51.134;4.156;2022-07-11T07:44:54;21.60;99.90
23087;DHT22;11712;51.134;4.156;2022-07-11T07:47:19;21.80;99.90
23087;DHT22;11712;51.134;4.156;2022-07-11T07:49:46;21.50;99.90
23087;DHT22;11712;51.134;4.156;2022-07-11T07:52:11;20.90;99.90
23087;DHT22;11712;51.134;4.156;2022-07-11T07:54:37;21.00;99.90
23087;DHT22;11712;51.134;4.156;2022-07-11T07:57:03;20.80;99.90
23087;DHT22;11712;51.134;4.156;2022-07-11T07:59:29;20.80;99.90
23087;DHT22;11712;51.134;4.156;2022-07-11T08:01:55;20.90;99.90
23087;DHT22;11712;51.134;4.156;2022-07-11T08:04:20;21.10;99.90
23087;DHT22;11712;51.134;4.156;2022-07-11T08:06:46;21.50;99.90
23087;DHT22;11712;51.134;4.156;2022-07-11T08:09:12;21.70;99.90
23087;DHT22;11712;51.134;4.156;2022-07-11T08:11:37;21.90;99.90
23087;DHT22;11712;51.134;4.156;2022-07-11T08:14:04;21.90;99.90
23087;DHT22;11712;51.134;4.156;2022-07-11T08:16:31;21.70;99.90
23087;DHT22;11712;51.134;4.156;2022-07-11T08:19:03;21.20;99.90
23087;DHT22;11712;51.134;4.156;2022-07-11T08:21:29;20.90;99.90
23087;DHT22;11712;51.134;4.156;2022-07-11T08:23:56;20.80;99.90
23087;DHT22;11712;51.134;4.156;2022-07-11T08:26:22;20.70;99.90
23087;DHT22;11712;51.134;4.156;2022-07-11T08:28:47;20.70;99.90
23087;DHT22;11712;51.134;4.156;2022-07-11T08:31:14;20.80;99.90
23087;DHT22;11712;51.134;4.156;2022-07-11T08:33:39;20.90;99.90
23087;DHT22;11712;51.134;4.156;2022-07-11T08:36:05;21.20;99.90
23087;DHT22;11712;51.134;4.156;2022-07-11T08:38:32;21.30;99.90
23087;DHT22;11712;51.134;4.156;2022-07-11T08:40:57;21.40;99.90
23087;DHT22;11712;51.134;4.156;2022-07-11T08:43:27;21.50;99.90
23087;DHT22;11712;51.134;4.156;2022-07-11T08:45:57;21.40;99.90
23087;DHT22;11712;51.134;4.156;2022-07-11T08:48:24;21.70;99.90
23087;DHT22;11712;51.134;4.156;2022-07-11T08:50:51;21.70;99.90
23087;DHT22;11712;51.134;4.156;2022-07-11T08:53:17;21.70;99.90
23087;DHT22;11712;51.134;4.156;2022-07-11T08:55:43;21.80;99.90
23087;DHT22;11712;51.134;4.156;2022-07-11T08:58:09;21.80;99.90
23087;DHT22;11712;51.134;4.156;2022-07-11T09:00:36;21.90;99.90
23087;DHT22;11712;51.134;4.156;2022-07-11T09:03:03;21.80;99.90
23087;DHT22;11712;51.134;4.156;2022-07-11T09:05:33;21.60;99.90
23087;DHT22;11712;51.134;4.156;2022-07-11T09:07:59;21.50;99.90
23087;DHT22;11712;51.134;4.156;2022-07-11T09:10:25;21.90;99.90
23087;DHT22;11712;51.134;4.156;2022-07-11T09:13:08;22.20;99.90
23087;DHT22;11712;51.134;4.156;2022-07-11T09:15:43;22.10;99.90
23087;DHT22;11712;51.134;4.156;2022-07-11T09:18:29;21.90;99.90
23087;DHT22;11712;51.134;4.156;2022-07-11T09:21:12;21.90;99.90
23087;DHT22;11712;51.134;4.156;2022-07-11T09:24:01;21.90;99.90
23087;DHT22;11712;51.134;4.156;2022-07-11T09:26:48;21.90;99.90
23087;DHT22;11712;51.134;4.156;2022-07-11T09:29:15;22.10;99.90
23087;DHT22;11712;51.134;4.156;2022-07-11T09:31:43;22.40;99.90
23087;DHT22;11712;51.134;4.156;2022-07-11T09:34:15;22.40;99.90
23087;DHT22;11712;51.134;4.156;2022-07-11T09:36:47;22.20;99.90
23087;DHT22;11712;51.134;4.156;2022-07-11T09:39:18;22.50;99.90
23087;DHT22;11712;51.134;4.156;2022-07-11T09:41:45;22.70;99.90
23087;DHT22;11712;51.134;4.156;2022-07-11T09:44:28;22.70;99.90
23087;DHT22;11712;51.134;4.156;2022-07-11T09:46:55;22.90;99.90
23087;DHT22;11712;51.134;4.156;2022-07-11T09:49:35;23.00;99.90
23087;DHT22;11712;51.134;4.156;2022-07-11T09:52:16;22.90;99.90
23087;DHT22;11712;51.134;4.156;2022-07-11T09:54:56;22.90;99.90
23087;DHT22;11712;51.134;4.156;2022-07-11T09:57:37;23.00;99.90
23087;DHT22;11712;51.134;4.156;2022-07-11T10:00:05;23.00;99.90
23087;DHT22;11712;51.134;4.156;2022-07-11T10:02:31;22.90;99.90
23087;DHT22;11712;51.134;4.156;2022-07-11T10:05:01;22.80;99.90
23087;DHT22;11712;51.134;4.156;2022-07-11T10:07:28;23.00;99.90
23087;DHT22;11712;51.134;4.156;2022-07-11T10:09:54;23.00;99.90
23087;DHT22;11712;51.134;4.156;2022-07-11T10:12:20;23.00;99.90
23087;DHT22;11712;51.134;4.156;2022-07-11T10:14:48;23.00;99.90
23087;DHT22;11712;51.134;4.156;2022-07-11T10:20:07;23.10;99.90
23087;DHT22;11712;51.134;4.156;2022-07-11T10:22:39;23.10;99.90
23087;DHT22;11712;51.134;4.156;2022-07-11T10:25:25;23.20;99.90
23087;DHT22;11712;51.134;4.156;2022-07-11T10:28:13;23.10;99.90
23087;DHT22;11712;51.134;4.156;2022-07-11T10:30:50;23.20;99.90
23087;DHT22;11712;51.134;4.156;2022-07-11T10:33:17;23.20;99.90
23087;DHT22;11712;51.134;4.156;2022-07-11T10:35:49;23.20;99.90
23087;DHT22;11712;51.134;4.156;2022-07-11T10:38:22;23.10;99.90
23087;DHT22;11712;51.134;4.156;2022-07-11T10:40:54;23.20;99.90
23087;DHT22;11712;51.134;4.156;2022-07-11T10:43:38;23.30;99.90
23087;DHT22;11712;51.134;4.156;2022-07-11T10:46:07;23.50;99.90
23087;DHT22;11712;51.134;4.156;2022-07-11T10:48:56;23.60;99.90
23087;DHT22;11712;51.134;4.156;2022-07-11T10:51:44;23.80;99.90
23087;DHT22;11712;51.134;4.156;2022-07-11T10:54:24;24.10;99.90
23087;DHT22;11712;51.134;4.156;2022-07-11T11:00:02;24.40;99.90
23087;DHT22;11712;51.134;4.156;2022-07-11T11:02:29;24.70;99.90
23087;DHT22;11712;51.134;4.156;2022-07-11T11:04:57;24.70;99.90
23087;DHT22;11712;51.134;4.156;2022-07-11T11:07:31;24.50;99.90
23087;DHT22;11712;51.134;4.156;2022-07-11T11:09:57;24.30;99.90
23087;DHT22;11712;51.134;4.156;2022-07-11T11:18:42;24.20;99.90
23087;DHT22;11712;51.134;4.156;2022-07-11T11:23:40;24.60;99.90
23087;DHT22;11712;51.134;4.156;2022-07-11T11:28:35;24.40;99.90
23087;DHT22;11712;51.134;4.156;2022-07-11T11:31:07;24.50;99.90
23087;DHT22;11712;51.134;4.156;2022-07-11T11:33:35;24.70;99.90
23087;DHT22;11712;51.134;4.156;2022-07-11T11:36:02;24.70;99.90
23087;DHT22;11712;51.134;4.156;2022-07-11T11:38:29;24.80;99.90
23087;DHT22;11712;51.134;4.156;2022-07-11T11:40:55;24.80;99.90
23087;DHT22;11712;51.134;4.156;2022-07-11T11:43:22;24.50;99.90
23087;DHT22;11712;51.134;4.156;2022-07-11T11:45:52;24.50;99.90
23087;DHT22;11712;51.134;4.156;2022-07-11T11:48:37;24.60;99.90
23087;DHT22;11712;51.134;4.156;2022-07-11T11:51:19;24.80;99.90
23087;DHT22;11712;51.134;4.156;2022-07-11T11:53:53;25.00;99.90
23087;DHT22;11712;51.134;4.156;2022-07-11T11:56:32;25.10;99.90
23087;DHT22;11712;51.134;4.156;2022-07-11T11:59:07;25.10;99.90
23087;DHT22;11712;51.134;4.156;2022-07-11T12:01:35;25.10;99.90
23087;DHT22;11712;51.134;4.156;2022-07-11T12:04:04;25.00;99.90
23087;DHT22;11712;51.134;4.156;2022-07-11T12:06:33;25.20;99.90
23087;DHT22;11712;51.134;4.156;2022-07-11T12:09:20;25.60;99.90
23087;DHT22;11712;51.134;4.156;2022-07-11T12:11:49;26.20;99.90
23087;DHT22;11712;51.134;4.156;2022-07-11T12:14:33;26.40;99.90
23087;DHT22;11712;51.134;4.156;2022-07-11T12:16:59;26.10;99.90
23087;DHT22;11712;51.134;4.156;2022-07-11T12:19:25;26.10;99.90
23087;DHT22;11712;51.134;4.156;2022-07-11T12:21:53;26.30;99.90
23087;DHT22;11712;51.134;4.156;2022-07-11T12:24:21;26.00;99.90
23087;DHT22;11712;51.134;4.156;2022-07-11T12:26:48;26.00;99.90
23087;DHT22;11712;51.134;4.156;2022-07-11T12:31:54;26.40;99.90
23087;DHT22;11712;51.134;4.156;2022-07-11T12:34:21;26.50;99.90
23087;DHT22;11712;51.134;4.156;2022-07-11T12:36:48;26.20;99.90
23087;DHT22;11712;51.134;4.156;2022-07-11T12:39:27;25.80;99.90
23087;DHT22;11712;51.134;4.156;2022-07-11T12:41:55;25.90;99.90
23087;DHT22;11712;51.134;4.156;2022-07-11T12:44:31;26.10;99.90
23087;DHT22;11712;51.134;4.156;2022-07-11T12:47:23;26.30;99.90
23087;DHT22;11712;51.134;4.156;2022-07-11T12:49:50;26.20;99.90
23087;DHT22;11712;51.134;4.156;2022-07-11T12:52:17;26.00;99.90
23087;DHT22;11712;51.134;4.156;2022-07-11T12:54:43;25.90;99.90
23087;DHT22;11712;51.134;4.156;2022-07-11T12:57:09;26.10;99.90
23087;DHT22;11712;51.134;4.156;2022-07-11T12:59:39;26.60;99.90
23087;DHT22;11712;51.134;4.156;2022-07-11T13:02:10;27.00;99.90
23087;DHT22;11712;51.134;4.156;2022-07-11T13:04:38;27.30;99.90
23087;DHT22;11712;51.134;4.156;2022-07-11T13:07:23;27.30;99.90
23087;DHT22;11712;51.134;4.156;2022-07-11T13:10:10;27.70;99.90
23087;DHT22;11712;51.134;4.156;2022-07-11T13:12:36;27.60;99.90
23087;DHT22;11712;51.134;4.156;2022-07-11T13:15:04;27.70;99.90
23087;DHT22;11712;51.134;4.156;2022-07-11T13:17:41;27.10;99.90
23087;DHT22;11712;51.134;4.156;2022-07-11T13:20:15;26.50;99.90
23087;DHT22;11712;51.134;4.156;2022-07-11T13:22:42;26.50;99.90
23087;DHT22;11712;51.134;4.156;2022-07-11T13:25:09;26.40;99.90
23087;DHT22;11712;51.134;4.156;2022-07-11T13:27:42;26.70;99.90
23087;DHT22;11712;51.134;4.156;2022-07-11T13:30:10;26.80;99.90
23087;DHT22;11712;51.134;4.156;2022-07-11T13:32:46;26.20;99.90
23087;DHT22;11712;51.134;4.156;2022-07-11T13:35:12;26.10;99.90
23087;DHT22;11712;51.134;4.156;2022-07-11T13:37:38;25.70;99.90
23087;DHT22;11712;51.134;4.156;2022-07-11T13:40:08;25.60;99.90
23087;DHT22;11712;51.134;4.156;2022-07-11T13:42:35;26.00;99.90
23087;DHT22;11712;51.134;4.156;2022-07-11T13:45:02;26.60;99.90
23087;DHT22;11712;51.134;4.156;2022-07-11T13:47:28;26.80;99.90
23087;DHT22;11712;51.134;4.156;2022-07-11T13:49:54;27.40;99.90
23087;DHT22;11712;51.134;4.156;2022-07-11T13:52:20;27.50;99.90
23087;DHT22;11712;51.134;4.156;2022-07-11T13:54:45;27.10;99.90
23087;DHT22;11712;51.134;4.156;2022-07-11T13:57:11;27.20;99.90
23087;DHT22;11712;51.134;4.156;2022-07-11T13:59:37;27.10;99.90
23087;DHT22;11712;51.134;4.156;2022-07-11T14:02:03;26.80;99.90
23087;DHT22;11712;51.134;4.156;2022-07-11T14:04:30;27.10;99.90
23087;DHT22;11712;51.134;4.156;2022-07-11T14:06:55;27.40;99.90
23087;DHT22;11712;51.134;4.156;2022-07-11T14:09:21;27.60;99.90
23087;DHT22;11712;51.134;4.156;2022-07-11T14:11:47;27.80;99.90
23087;DHT22;11712;51.134;4.156;2022-07-11T14:14:13;27.10;99.90
23087;DHT22;11712;51.134;4.156;2022-07-11T14:16:39;27.80;99.90
23087;DHT22;11712;51.134;4.156;2022-07-11T14:19:05;29.30;99.90
23087;DHT22;11712;51.134;4.156;2022-07-11T14:21:33;30.90;99.90
23087;DHT22;11712;51.134;4.156;2022-07-11T14:24:00;30.70;99.90
23087;DHT22;11712;51.134;4.156;2022-07-11T14:26:26;30.10;99.90
23087;DHT22;11712;51.134;4.156;2022-07-11T14:28:52;29.70;99.90
23087;DHT22;11712;51.134;4.156;2022-07-11T14:31:18;31.10;99.90
23087;DHT22;11712;51.134;4.156;2022-07-11T14:33:44;31.60;99.90
23087;DHT22;11712;51.134;4.156;2022-07-11T14:36:10;32.40;99.90
23087;DHT22;11712;51.134;4.156;2022-07-11T14:38:36;32.60;99.90
23087;DHT22;11712;51.134;4.156;2022-07-11T14:41:01;32.10;99.90
23087;DHT22;11712;51.134;4.156;2022-07-11T14:43:27;31.20;99.90
23087;DHT22;11712;51.134;4.156;2022-07-11T14:45:54;31.40;99.90
23087;DHT22;11712;51.134;4.156;2022-07-11T14:48:20;32.20;99.90
23087;DHT22;11712;51.134;4.156;2022-07-11T14:50:45;32.20;99.90
23087;DHT22;11712;51.134;4.156;2022-07-11T14:53:12;31.90;99.90
23087;DHT22;11712;51.134;4.156;2022-07-11T14:55:38;30.90;99.90
23087;DHT22;11712;51.134;4.156;2022-07-11T14:58:04;31.20;99.90
23087;DHT22;11712;51.134;4.156;2022-07-11T15:00:30;31.20;99.90
23087;DHT22;11712;51.134;4.156;2022-07-11T15:02:57;31.60;99.90
23087;DHT22;11712;51.134;4.156;2022-07-11T15:05:42;32.80;99.90
23087;DHT22;11712;51.134;4.156;2022-07-11T15:08:08;33.00;97.50
23087;DHT22;11712;51.134;4.156;2022-07-11T15:10:52;33.00;98.30
23087;DHT22;11712;51.134;4.156;2022-07-11T15:13:36;31.70;99.50
23087;DHT22;11712;51.134;4.156;2022-07-11T15:16:02;31.60;99.90
23087;DHT22;11712;51.134;4.156;2022-07-11T15:18:29;32.60;99.20
23087;DHT22;11712;51.134;4.156;2022-07-11T15:20:54;33.70;97.80
23087;DHT22;11712;51.134;4.156;2022-07-11T15:23:20;34.70;96.80
23087;DHT22;11712;51.134;4.156;2022-07-11T15:25:47;35.30;93.70
23087;DHT22;11712;51.134;4.156;2022-07-11T15:28:13;33.90;94.30
23087;DHT22;11712;51.134;4.156;2022-07-11T15:30:39;33.10;95.50
23087;DHT22;11712;51.134;4.156;2022-07-11T15:33:04;34.10;94.60
23087;DHT22;11712;51.134;4.156;2022-07-11T15:35:30;33.90;93.80
23087;DHT22;11712;51.134;4.156;2022-07-11T15:37:56;34.80;92.80
23087;DHT22;11712;51.134;4.156;2022-07-11T15:40:22;33.80;92.40
23087;DHT22;11712;51.134;4.156;2022-07-11T15:42:47;33.40;93.90
23087;DHT22;11712;51.134;4.156;2022-07-11T15:45:13;32.40;93.40
23087;DHT22;11712;51.134;4.156;2022-07-11T15:47:39;32.40;93.70
23087;DHT22;11712;51.134;4.156;2022-07-11T15:50:06;33.30;94.70
23087;DHT22;11712;51.134;4.156;2022-07-11T15:52:32;33.80;93.50
23087;DHT22;11712;51.134;4.156;2022-07-11T15:54:58;33.60;94.00